sensor_id;sensor_type;location;lat;lon;timestamp;P1;durP1;ratioP1;P2;durP2;ratioP2
23009;SDS011;11671;49.990;8.028;2023-06-26T00:00:26;14.75;;;6.60;;
23009;SDS011;11671;49.990;8.028;2023-06-26T00:05:17;9.98;;;5.78;;
23009;SDS011;11671;49.990;8.028;2023-06-26T00:10:08;11.95;;;5.55;;
23009;SDS011;11671;49.990;8.028;2023-06-26T00:14:59;8.50;;;6.05;;
23009;SDS011;11671;49.990;8.028;2023-06-26T00:19:51;9.85;;;6.13;;
23009;SDS011;11671;49.990;8.028;2023-06-26T00:24:42;9.00;;;6.05;;
23009;SDS011;11671;49.990;8.028;2023-06-26T00:27:10;8.30;;;5.75;;
23009;SDS011;11671;49.990;8.028;2023-06-26T00:32:01;8.60;;;6.32;;
23009;SDS011;11671;49.990;8.028;2023-06-26T00:36:52;9.02;;;6.07;;
23009;SDS011;11671;49.990;8.028;2023-06-26T00:41:43;12.13;;;5.90;;
23009;SDS011;11671;49.990;8.028;2023-06-26T00:46:34;9.18;;;6.07;;
23009;SDS011;11671;49.990;8.028;2023-06-26T00:51:27;9.75;;;6.35;;
23009;SDS011;11671;49.990;8.028;2023-06-26T00:53:55;8.48;;;5.75;;
23009;SDS011;11671;49.990;8.028;2023-06-26T00:56:21;10.05;;;5.78;;
23009;SDS011;11671;49.990;8.028;2023-06-26T01:01:13;10.02;;;6.13;;
23009;SDS011;11671;49.990;8.028;2023-06-26T01:03:45;8.23;;;5.82;;
23009;SDS011;11671;49.990;8.028;2023-06-26T01:06:16;8.90;;;6.00;;
23009;SDS011;11671;49.990;8.028;2023-06-26T01:08:43;9.82;;;6.40;;
23009;SDS011;11671;49.990;8.028;2023-06-26T01:11:10;7.43;;;5.70;;
23009;SDS011;11671;49.990;8.028;2023-06-26T01:13:36;6.80;;;4.80;;
23009;SDS011;11671;49.990;8.028;2023-06-26T01:16:02;11.18;;;6.55;;
23009;SDS011;11671;49.990;8.028;2023-06-26T01:18:30;8.35;;;5.80;;
23009;SDS011;11671;49.990;8.028;2023-06-26T01:20:57;10.90;;;5.70;;
23009;SDS011;11671;49.990;8.028;2023-06-26T01:23:30;10.73;;;5.90;;
23009;SDS011;11671;49.990;8.028;2023-06-26T01:26:21;7.13;;;5.30;;
23009;SDS011;11671;49.990;8.028;2023-06-26T01:28:49;9.00;;;5.30;;
23009;SDS011;11671;49.990;8.028;2023-06-26T01:31:16;8.38;;;5.75;;
23009;SDS011;11671;49.990;8.028;2023-06-26T01:33:42;9.73;;;6.47;;
23009;SDS011;11671;49.990;8.028;2023-06-26T01:36:09;13.13;;;6.35;;
23009;SDS011;11671;49.990;8.028;2023-06-26T01:38:35;8.38;;;5.78;;
23009;SDS011;11671;49.990;8.028;2023-06-26T01:43:29;8.20;;;6.00;;
23009;SDS011;11671;49.990;8.028;2023-06-26T01:46:03;9.35;;;5.43;;
23009;SDS011;11671;49.990;8.028;2023-06-26T01:48:39;8.38;;;6.03;;
23009;SDS011;11671;49.990;8.028;2023-06-26T01:51:09;11.75;;;6.03;;
23009;SDS011;11671;49.990;8.028;2023-06-26T01:53:38;9.55;;;6.30;;
23009;SDS011;11671;49.990;8.028;2023-06-26T01:56:12;11.00;;;5.60;;
23009;SDS011;11671;49.990;8.028;2023-06-26T01:58:41;8.10;;;5.25;;
23009;SDS011;11671;49.990;8.028;2023-06-26T02:01:10;12.15;;;7.13;;
23009;SDS011;11671;49.990;8.028;2023-06-26T02:03:36;10.20;;;6.32;;
23009;SDS011;11671;49.990;8.028;2023-06-26T02:08:27;10.32;;;6.10;;
23009;SDS011;11671;49.990;8.028;2023-06-26T02:13:18;9.02;;;5.82;;
23009;SDS011;11671;49.990;8.028;2023-06-26T02:18:09;8.43;;;5.72;;
23009;SDS011;11671;49.990;8.028;2023-06-26T02:23:00;8.20;;;5.97;;
23009;SDS011;11671;49.990;8.028;2023-06-26T02:27:51;8.27;;;5.55;;
23009;SDS011;11671;49.990;8.028;2023-06-26T02:32:43;8.13;;;5.53;;
23009;SDS011;11671;49.990;8.028;2023-06-26T02:37:34;8.05;;;5.68;;
23009;SDS011;11671;49.990;8.028;2023-06-26T02:42:25;7.50;;;5.35;;
23009;SDS011;11671;49.990;8.028;2023-06-26T02:47:16;9.13;;;5.78;;
23009;SDS011;11671;49.990;8.028;2023-06-26T02:52:08;8.95;;;6.32;;
23009;SDS011;11671;49.990;8.028;2023-06-26T02:56:59;13.77;;;5.80;;
23009;SDS011;11671;49.990;8.028;2023-06-26T03:01:51;12.55;;;5.97;;
23009;SDS011;11671;49.990;8.028;2023-06-26T03:06:43;9.63;;;5.57;;
23009;SDS011;11671;49.990;8.028;2023-06-26T03:11:34;8.68;;;5.82;;
23009;SDS011;11671;49.990;8.028;2023-06-26T03:16:25;9.13;;;6.03;;
23009;SDS011;11671;49.990;8.028;2023-06-26T03:21:16;6.53;;;5.55;;
23009;SDS011;11671;49.990;8.028;2023-06-26T03:23:42;8.95;;;5.72;;
23009;SDS011;11671;49.990;8.028;2023-06-26T03:28:33;8.95;;;6.30;;
23009;SDS011;11671;49.990;8.028;2023-06-26T03:33:24;10.43;;;5.85;;
23009;SDS011;11671;49.990;8.028;2023-06-26T03:38:15;8.05;;;5.93;;
23009;SDS011;11671;49.990;8.028;2023-06-26T03:43:06;9.02;;;5.35;;
23009;SDS011;11671;49.990;8.028;2023-06-26T03:47:57;11.45;;;6.22;;
23009;SDS011;11671;49.990;8.028;2023-06-26T03:52:48;8.02;;;6.00;;
23009;SDS011;11671;49.990;8.028;2023-06-26T03:55:15;7.53;;;5.13;;
23009;SDS011;11671;49.990;8.028;2023-06-26T04:00:07;9.50;;;5.82;;
23009;SDS011;11671;49.990;8.028;2023-06-26T04:02:38;8.98;;;5.63;;
23009;SDS011;11671;49.990;8.028;2023-06-26T04:07:30;8.63;;;5.68;;
23009;SDS011;11671;49.990;8.028;2023-06-26T04:12:22;8.27;;;5.43;;
23009;SDS011;11671;49.990;8.028;2023-06-26T04:17:13;9.68;;;5.45;;
23009;SDS011;11671;49.990;8.028;2023-06-26T04:22:04;9.40;;;5.28;;
23009;SDS011;11671;49.990;8.028;2023-06-26T04:26:55;8.43;;;5.18;;
23009;SDS011;11671;49.990;8.028;2023-06-26T04:29:25;10.52;;;5.88;;
23009;SDS011;11671;49.990;8.028;2023-06-26T04:31:52;9.15;;;6.25;;
23009;SDS011;11671;49.990;8.028;2023-06-26T04:34:22;12.13;;;6.25;;
23009;SDS011;11671;49.990;8.028;2023-06-26T04:36:49;10.15;;;5.95;;
23009;SDS011;11671;49.990;8.028;2023-06-26T04:39:15;8.40;;;5.75;;
23009;SDS011;11671;49.990;8.028;2023-06-26T04:44:07;7.60;;;5.70;;
23009;SDS011;11671;49.990;8.028;2023-06-26T04:48:59;9.23;;;5.68;;
23009;SDS011;11671;49.990;8.028;2023-06-26T04:53:52;10.90;;;6.78;;
23009;SDS011;11671;49.990;8.028;2023-06-26T04:58:43;9.38;;;5.60;;
23009;SDS011;11671;49.990;8.028;2023-06-26T05:03:35;10.68;;;5.72;;
23009;SDS011;11671;49.990;8.028;2023-06-26T05:06:01;12.90;;;7.22;;
23009;SDS011;11671;49.990;8.028;2023-06-26T05:10:53;10.93;;;5.97;;
23009;SDS011;11671;49.990;8.028;2023-06-26T05:13:22;8.65;;;5.55;;
23009;SDS011;11671;49.990;8.028;2023-06-26T05:18:14;13.98;;;6.40;;
23009;SDS011;11671;49.990;8.028;2023-06-26T05:23:05;10.95;;;6.20;;
23009;SDS011;11671;49.990;8.028;2023-06-26T05:25:31;12.88;;;6.18;;
23009;SDS011;11671;49.990;8.028;2023-06-26T05:27:59;6.22;;;5.40;;
23009;SDS011;11671;49.990;8.028;2023-06-26T05:30:25;8.05;;;6.07;;
23009;SDS011;11671;49.990;8.028;2023-06-26T05:32:52;7.57;;;5.97;;
23009;SDS011;11671;49.990;8.028;2023-06-26T05:35:20;9.70;;;5.85;;
23009;SDS011;11671;49.990;8.028;2023-06-26T05:37:48;7.45;;;5.55;;
23009;SDS011;11671;49.990;8.028;2023-06-26T05:40:16;8.32;;;5.63;;
23009;SDS011;11671;49.990;8.028;2023-06-26T05:42:42;10.13;;;6.32;;
23009;SDS011;11671;49.990;8.028;2023-06-26T05:45:09;12.35;;;5.55;;
23009;SDS011;11671;49.990;8.028;2023-06-26T05:47:35;7.00;;;5.60;;
23009;SDS011;11671;49.990;8.028;2023-06-26T05:50:01;8.02;;;5.57;;
23009;SDS011;11671;49.990;8.028;2023-06-26T05:52:27;6.00;;;5.28;;
23009;SDS011;11671;49.990;8.028;2023-06-26T05:54:53;7.78;;;6.05;;
23009;SDS011;11671;49.990;8.028;2023-06-26T05:57:19;9.48;;;5.63;;
23009;SDS011;11671;49.990;8.028;2023-06-26T05:59:46;6.38;;;5.40;;
23009;SDS011;11671;49.990;8.028;2023-06-26T06:02:12;6.57;;;5.28;;
23009;SDS011;11671;49.990;8.028;2023-06-26T06:04:39;7.28;;;5.65;;
23009;SDS011;11671;49.990;8.028;2023-06-26T06:07:04;8.15;;;5.88;;
23009;SDS011;11671;49.990;8.028;2023-06-26T06:09:30;6.93;;;5.55;;
23009;SDS011;11671;49.990;8.028;2023-06-26T06:11:56;9.98;;;5.82;;
23009;SDS011;11671;49.990;8.028;2023-06-26T06:14:23;6.80;;;6.07;;
23009;SDS011;11671;49.990;8.028;2023-06-26T06:16:48;6.10;;;5.50;;
23009;SDS011;11671;49.990;8.028;2023-06-26T06:19:14;7.18;;;6.07;;
23009;SDS011;11671;49.990;8.028;2023-06-26T06:21:40;8.48;;;5.40;;
23009;SDS011;11671;49.990;8.028;2023-06-26T06:24:06;8.98;;;5.97;;
23009;SDS011;11671;49.990;8.028;2023-06-26T06:26:32;9.30;;;5.82;;
23009;SDS011;11671;49.990;8.028;2023-06-26T06:28:58;7.28;;;5.72;;
23009;SDS011;11671;49.990;8.028;2023-06-26T06:31:23;8.88;;;5.97;;
23009;SDS011;11671;49.990;8.028;2023-06-26T06:33:49;7.95;;;6.10;;
23009;SDS011;11671;49.990;8.028;2023-06-26T06:36:15;10.23;;;5.70;;
23009;SDS011;11671;49.990;8.028;2023-06-26T06:38:43;8.88;;;5.80;;
23009;SDS011;11671;49.990;8.028;2023-06-26T06:41:09;10.25;;;6.30;;
23009;SDS011;11671;49.990;8.028;2023-06-26T06:43:35;8.93;;;5.85;;
23009;SDS011;11671;49.990;8.028;2023-06-26T06:46:01;8.27;;;6.47;;
23009;SDS011;11671;49.990;8.028;2023-06-26T06:48:27;7.63;;;5.72;;
23009;SDS011;11671;49.990;8.028;2023-06-26T06:50:53;6.22;;;5.63;;
23009;SDS011;11671;49.990;8.028;2023-06-26T06:53:18;7.28;;;5.40;;
23009;SDS011;11671;49.990;8.028;2023-06-26T06:55:45;9.45;;;5.80;;
23009;SDS011;11671;49.990;8.028;2023-06-26T06:58:11;9.05;;;5.82;;
23009;SDS011;11671;49.990;8.028;2023-06-26T07:00:37;10.48;;;5.97;;
23009;SDS011;11671;49.990;8.028;2023-06-26T07:03:02;8.00;;;5.82;;
23009;SDS011;11671;49.990;8.028;2023-06-26T07:05:28;8.27;;;6.40;;
23009;SDS011;11671;49.990;8.028;2023-06-26T07:07:54;9.85;;;6.55;;
23009;SDS011;11671;49.990;8.028;2023-06-26T07:10:20;6.95;;;6.05;;
23009;SDS011;11671;49.990;8.028;2023-06-26T07:12:46;9.75;;;6.10;;
23009;SDS011;11671;49.990;8.028;2023-06-26T07:15:11;7.32;;;5.15;;
23009;SDS011;11671;49.990;8.028;2023-06-26T07:17:37;7.47;;;5.53;;
23009;SDS011;11671;49.990;8.028;2023-06-26T07:20:04;8.25;;;5.20;;
23009;SDS011;11671;49.990;8.028;2023-06-26T07:22:33;8.60;;;5.78;;
23009;SDS011;11671;49.990;8.028;2023-06-26T07:25:02;8.30;;;5.72;;
23009;SDS011;11671;49.990;8.028;2023-06-26T07:27:29;8.52;;;5.28;;
23009;SDS011;11671;49.990;8.028;2023-06-26T07:29:54;9.20;;;5.90;;
23009;SDS011;11671;49.990;8.028;2023-06-26T07:32:20;10.55;;;6.15;;
23009;SDS011;11671;49.990;8.028;2023-06-26T07:34:45;8.90;;;7.25;;
23009;SDS011;11671;49.990;8.028;2023-06-26T07:37:11;7.72;;;6.43;;
23009;SDS011;11671;49.990;8.028;2023-06-26T07:39:37;12.77;;;5.78;;
23009;SDS011;11671;49.990;8.028;2023-06-26T07:42:02;8.13;;;5.93;;
23009;SDS011;11671;49.990;8.028;2023-06-26T07:44:28;10.68;;;5.88;;
23009;SDS011;11671;49.990;8.028;2023-06-26T07:46:54;7.70;;;6.22;;
23009;SDS011;11671;49.990;8.028;2023-06-26T07:49:19;7.00;;;5.30;;
23009;SDS011;11671;49.990;8.028;2023-06-26T07:51:45;7.15;;;5.78;;
23009;SDS011;11671;49.990;8.028;2023-06-26T07:54:11;11.82;;;6.13;;
23009;SDS011;11671;49.990;8.028;2023-06-26T07:56:52;7.40;;;5.75;;
23009;SDS011;11671;49.990;8.028;2023-06-26T07:59:19;7.10;;;5.90;;
23009;SDS011;11671;49.990;8.028;2023-06-26T08:01:49;7.53;;;6.18;;
23009;SDS011;11671;49.990;8.028;2023-06-26T08:04:17;6.78;;;5.72;;
23009;SDS011;11671;49.990;8.028;2023-06-26T08:06:43;7.55;;;5.32;;
23009;SDS011;11671;49.990;8.028;2023-06-26T08:09:09;11.60;;;5.28;;
23009;SDS011;11671;49.990;8.028;2023-06-26T08:11:35;5.68;;;4.85;;
23009;SDS011;11671;49.990;8.028;2023-06-26T08:14:00;8.85;;;5.45;;
23009;SDS011;11671;49.990;8.028;2023-06-26T08:16:26;9.52;;;5.13;;
23009;SDS011;11671;49.990;8.028;2023-06-26T08:18:52;8.27;;;4.65;;
23009;SDS011;11671;49.990;8.028;2023-06-26T08:21:17;5.38;;;4.43;;
23009;SDS011;11671;49.990;8.028;2023-06-26T08:23:43;23.27;;;5.40;;
23009;SDS011;11671;49.990;8.028;2023-06-26T08:26:08;8.43;;;4.55;;
23009;SDS011;11671;49.990;8.028;2023-06-26T08:28:34;6.07;;;4.68;;
23009;SDS011;11671;49.990;8.028;2023-06-26T08:30:59;13.05;;;4.95;;
23009;SDS011;11671;49.990;8.028;2023-06-26T08:33:25;6.60;;;5.22;;
23009;SDS011;11671;49.990;8.028;2023-06-26T08:35:51;7.75;;;5.18;;
23009;SDS011;11671;49.990;8.028;2023-06-26T08:38:16;17.73;;;4.90;;
23009;SDS011;11671;49.990;8.028;2023-06-26T08:40:42;5.68;;;4.95;;
23009;SDS011;11671;49.990;8.028;2023-06-26T08:43:07;7.15;;;5.15;;
23009;SDS011;11671;49.990;8.028;2023-06-26T08:45:33;5.80;;;4.90;;
23009;SDS011;11671;49.990;8.028;2023-06-26T08:47:59;14.55;;;5.50;;
23009;SDS011;11671;49.990;8.028;2023-06-26T08:50:27;9.27;;;4.80;;
23009;SDS011;11671;49.990;8.028;2023-06-26T08:55:29;6.35;;;4.65;;
23009;SDS011;11671;49.990;8.028;2023-06-26T08:57:56;9.88;;;5.20;;
23009;SDS011;11671;49.990;8.028;2023-06-26T09:00:23;12.35;;;5.68;;
23009;SDS011;11671;49.990;8.028;2023-06-26T09:02:48;6.90;;;4.55;;
23009;SDS011;11671;49.990;8.028;2023-06-26T09:05:14;6.28;;;5.40;;
23009;SDS011;11671;49.990;8.028;2023-06-26T09:07:40;5.78;;;5.20;;
23009;SDS011;11671;49.990;8.028;2023-06-26T09:10:05;6.65;;;5.50;;
23009;SDS011;11671;49.990;8.028;2023-06-26T09:12:31;6.32;;;5.05;;
23009;SDS011;11671;49.990;8.028;2023-06-26T09:14:58;7.35;;;5.90;;
23009;SDS011;11671;49.990;8.028;2023-06-26T09:17:38;7.57;;;4.82;;
23009;SDS011;11671;49.990;8.028;2023-06-26T09:20:07;6.38;;;5.13;;
23009;SDS011;11671;49.990;8.028;2023-06-26T09:22:40;6.43;;;4.50;;
23009;SDS011;11671;49.990;8.028;2023-06-26T09:25:08;9.77;;;5.80;;
23009;SDS011;11671;49.990;8.028;2023-06-26T09:27:34;6.93;;;4.80;;
23009;SDS011;11671;49.990;8.028;2023-06-26T09:30:03;6.93;;;4.63;;
23009;SDS011;11671;49.990;8.028;2023-06-26T09:32:37;5.72;;;4.70;;
23009;SDS011;11671;49.990;8.028;2023-06-26T09:35:03;5.47;;;4.65;;
23009;SDS011;11671;49.990;8.028;2023-06-26T09:37:29;7.88;;;4.93;;
23009;SDS011;11671;49.990;8.028;2023-06-26T09:39:55;8.82;;;5.25;;
23009;SDS011;11671;49.990;8.028;2023-06-26T09:42:20;5.80;;;4.57;;
23009;SDS011;11671;49.990;8.028;2023-06-26T09:44:47;5.88;;;4.32;;
23009;SDS011;11671;49.990;8.028;2023-06-26T09:47:16;6.18;;;4.85;;
23009;SDS011;11671;49.990;8.028;2023-06-26T09:49:43;6.28;;;4.25;;
23009;SDS011;11671;49.990;8.028;2023-06-26T09:52:09;5.72;;;4.30;;
23009;SDS011;11671;49.990;8.028;2023-06-26T09:54:38;6.72;;;4.90;;
23009;SDS011;11671;49.990;8.028;2023-06-26T09:57:07;8.20;;;4.88;;
23009;SDS011;11671;49.990;8.028;2023-06-26T09:59:36;6.38;;;5.07;;
23009;SDS011;11671;49.990;8.028;2023-06-26T10:02:02;5.53;;;3.97;;
23009;SDS011;11671;49.990;8.028;2023-06-26T10:04:28;5.32;;;4.60;;
23009;SDS011;11671;49.990;8.028;2023-06-26T10:06:57;13.15;;;4.88;;
23009;SDS011;11671;49.990;8.028;2023-06-26T10:09:25;5.43;;;4.50;;
23009;SDS011;11671;49.990;8.028;2023-06-26T10:12:03;7.32;;;4.78;;
23009;SDS011;11671;49.990;8.028;2023-06-26T10:14:34;6.18;;;4.53;;
23009;SDS011;11671;49.990;8.028;2023-06-26T10:17:03;6.15;;;4.18;;
23009;SDS011;11671;49.990;8.028;2023-06-26T10:19:31;7.85;;;4.30;;
23009;SDS011;11671;49.990;8.028;2023-06-26T10:21:59;4.90;;;4.32;;
23009;SDS011;11671;49.990;8.028;2023-06-26T10:24:27;8.52;;;4.50;;
23009;SDS011;11671;49.990;8.028;2023-06-26T10:27:02;7.82;;;4.45;;
23009;SDS011;11671;49.990;8.028;2023-06-26T10:29:33;5.63;;;4.60;;
23009;SDS011;11671;49.990;8.028;2023-06-26T10:32:00;7.40;;;4.15;;
23009;SDS011;11671;49.990;8.028;2023-06-26T10:34:29;7.07;;;5.28;;
23009;SDS011;11671;49.990;8.028;2023-06-26T10:36:59;7.30;;;5.10;;
23009;SDS011;11671;49.990;8.028;2023-06-26T10:39:26;9.55;;;5.00;;
23009;SDS011;11671;49.990;8.028;2023-06-26T10:41:52;8.95;;;4.80;;
23009;SDS011;11671;49.990;8.028;2023-06-26T10:44:19;12.63;;;5.68;;
23009;SDS011;11671;49.990;8.028;2023-06-26T10:46:52;7.05;;;5.30;;
23009;SDS011;11671;49.990;8.028;2023-06-26T10:49:19;12.13;;;5.85;;
23009;SDS011;11671;49.990;8.028;2023-06-26T10:51:46;11.80;;;5.97;;
23009;SDS011;11671;49.990;8.028;2023-06-26T10:54:17;8.27;;;6.45;;
23009;SDS011;11671;49.990;8.028;2023-06-26T10:56:50;8.73;;;6.13;;
23009;SDS011;11671;49.990;8.028;2023-06-26T10:59:27;8.07;;;6.15;;
23009;SDS011;11671;49.990;8.028;2023-06-26T11:01:54;8.60;;;6.47;;
23009;SDS011;11671;49.990;8.028;2023-06-26T11:04:37;9.00;;;6.32;;
23009;SDS011;11671;49.990;8.028;2023-06-26T11:09:56;7.88;;;6.00;;
23009;SDS011;11671;49.990;8.028;2023-06-26T11:12:41;9.05;;;6.35;;
23009;SDS011;11671;49.990;8.028;2023-06-26T11:15:08;8.60;;;6.23;;
23009;SDS011;11671;49.990;8.028;2023-06-26T11:17:38;7.60;;;6.20;;
23009;SDS011;11671;49.990;8.028;2023-06-26T11:20:05;8.05;;;6.13;;
23009;SDS011;11671;49.990;8.028;2023-06-26T11:22:34;10.13;;;7.05;;
23009;SDS011;11671;49.990;8.028;2023-06-26T11:25:02;9.43;;;7.05;;
23009;SDS011;11671;49.990;8.028;2023-06-26T11:27:46;11.05;;;6.60;;
23009;SDS011;11671;49.990;8.028;2023-06-26T11:30:22;8.70;;;7.13;;
23009;SDS011;11671;49.990;8.028;2023-06-26T11:32:49;8.30;;;6.72;;
23009;SDS011;11671;49.990;8.028;2023-06-26T11:35:24;16.83;;;6.35;;
23009;SDS011;11671;49.990;8.028;2023-06-26T11:37:56;7.20;;;5.53;;
23009;SDS011;11671;49.990;8.028;2023-06-26T11:40:25;10.52;;;6.07;;
23009;SDS011;11671;49.990;8.028;2023-06-26T11:42:55;7.32;;;5.90;;
23009;SDS011;11671;49.990;8.028;2023-06-26T11:45:20;7.65;;;5.38;;
23009;SDS011;11671;49.990;8.028;2023-06-26T11:47:46;13.07;;;5.30;;
23009;SDS011;11671;49.990;8.028;2023-06-26T11:50:15;10.15;;;6.35;;
23009;SDS011;11671;49.990;8.028;2023-06-26T11:52:42;8.85;;;5.03;;
23009;SDS011;11671;49.990;8.028;2023-06-26T11:55:08;6.03;;;4.40;;
23009;SDS011;11671;49.990;8.028;2023-06-26T11:57:35;6.20;;;4.45;;
23009;SDS011;11671;49.990;8.028;2023-06-26T12:00:14;6.32;;;3.97;;
23009;SDS011;11671;49.990;8.028;2023-06-26T12:02:41;5.78;;;3.75;;
23009;SDS011;11671;49.990;8.028;2023-06-26T12:05:08;4.63;;;3.80;;
23009;SDS011;11671;49.990;8.028;2023-06-26T12:07:34;7.45;;;3.42;;
23009;SDS011;11671;49.990;8.028;2023-06-26T12:10:01;4.82;;;3.30;;
23009;SDS011;11671;49.990;8.028;2023-06-26T12:12:29;7.00;;;3.22;;
23009;SDS011;11671;49.990;8.028;2023-06-26T12:14:56;4.95;;;2.97;;
23009;SDS011;11671;49.990;8.028;2023-06-26T12:17:23;6.32;;;3.30;;
23009;SDS011;11671;49.990;8.028;2023-06-26T12:19:50;14.77;;;3.95;;
23009;SDS011;11671;49.990;8.028;2023-06-26T12:22:16;4.68;;;3.50;;
23009;SDS011;11671;49.990;8.028;2023-06-26T12:24:43;5.78;;;2.65;;
23009;SDS011;11671;49.990;8.028;2023-06-26T12:27:12;6.78;;;3.28;;
23009;SDS011;11671;49.990;8.028;2023-06-26T12:29:40;7.13;;;3.10;;
23009;SDS011;11671;49.990;8.028;2023-06-26T12:32:14;5.43;;;3.80;;
23009;SDS011;11671;49.990;8.028;2023-06-26T12:34:40;9.32;;;3.97;;
23009;SDS011;11671;49.990;8.028;2023-06-26T12:37:10;7.82;;;4.82;;
23009;SDS011;11671;49.990;8.028;2023-06-26T12:39:52;8.88;;;4.00;;
23009;SDS011;11671;49.990;8.028;2023-06-26T12:42:26;8.52;;;4.50;;
23009;SDS011;11671;49.990;8.028;2023-06-26T12:44:53;10.95;;;4.15;;
23009;SDS011;11671;49.990;8.028;2023-06-26T12:47:25;9.98;;;3.47;;
23009;SDS011;11671;49.990;8.028;2023-06-26T12:49:52;6.88;;;3.95;;
23009;SDS011;11671;49.990;8.028;2023-06-26T12:52:18;12.95;;;4.82;;
23009;SDS011;11671;49.990;8.028;2023-06-26T12:54:45;6.93;;;3.97;;
23009;SDS011;11671;49.990;8.028;2023-06-26T12:57:12;9.40;;;3.83;;
23009;SDS011;11671;49.990;8.028;2023-06-26T12:59:39;5.15;;;2.97;;
23009;SDS011;11671;49.990;8.028;2023-06-26T13:02:05;4.45;;;3.35;;
23009;SDS011;11671;49.990;8.028;2023-06-26T13:04:33;5.43;;;3.20;;
23009;SDS011;11671;49.990;8.028;2023-06-26T13:06:58;4.72;;;2.42;;
23009;SDS011;11671;49.990;8.028;2023-06-26T13:09:24;6.03;;;2.38;;
23009;SDS011;11671;49.990;8.028;2023-06-26T13:11:51;4.80;;;2.28;;
23009;SDS011;11671;49.990;8.028;2023-06-26T13:14:17;4.10;;;2.28;;
23009;SDS011;11671;49.990;8.028;2023-06-26T13:16:42;4.30;;;2.22;;
23009;SDS011;11671;49.990;8.028;2023-06-26T13:19:08;6.45;;;2.15;;
23009;SDS011;11671;49.990;8.028;2023-06-26T13:21:34;3.05;;;1.73;;
23009;SDS011;11671;49.990;8.028;2023-06-26T13:24:00;4.25;;;2.28;;
23009;SDS011;11671;49.990;8.028;2023-06-26T13:26:26;5.43;;;2.28;;
23009;SDS011;11671;49.990;8.028;2023-06-26T13:28:53;5.03;;;2.28;;
23009;SDS011;11671;49.990;8.028;2023-06-26T13:31:19;6.63;;;2.22;;
23009;SDS011;11671;49.990;8.028;2023-06-26T13:33:46;5.50;;;2.50;;
23009;SDS011;11671;49.990;8.028;2023-06-26T13:36:13;3.38;;;1.70;;
23009;SDS011;11671;49.990;8.028;2023-06-26T13:38:40;5.13;;;2.00;;
23009;SDS011;11671;49.990;8.028;2023-06-26T13:41:05;6.45;;;2.08;;
23009;SDS011;11671;49.990;8.028;2023-06-26T13:43:31;7.78;;;2.42;;
23009;SDS011;11671;49.990;8.028;2023-06-26T13:45:57;4.47;;;1.88;;
23009;SDS011;11671;49.990;8.028;2023-06-26T13:48:22;8.57;;;2.05;;
23009;SDS011;11671;49.990;8.028;2023-06-26T13:50:51;9.05;;;2.60;;
23009;SDS011;11671;49.990;8.028;2023-06-26T13:53:17;3.63;;;2.08;;
23009;SDS011;11671;49.990;8.028;2023-06-26T13:55:43;6.50;;;1.90;;
23009;SDS011;11671;49.990;8.028;2023-06-26T13:58:09;3.60;;;1.90;;
23009;SDS011;11671;49.990;8.028;2023-06-26T14:00:36;9.60;;;1.92;;
23009;SDS011;11671;49.990;8.028;2023-06-26T14:03:05;8.10;;;2.45;;
23009;SDS011;11671;49.990;8.028;2023-06-26T14:05:32;5.20;;;1.98;;
23009;SDS011;11671;49.990;8.028;2023-06-26T14:07:59;5.07;;;1.70;;
23009;SDS011;11671;49.990;8.028;2023-06-26T14:10:27;3.20;;;1.83;;
23009;SDS011;11671;49.990;8.028;2023-06-26T14:12:52;4.63;;;1.50;;
23009;SDS011;11671;49.990;8.028;2023-06-26T14:15:18;3.40;;;1.55;;
23009;SDS011;11671;49.990;8.028;2023-06-26T14:17:43;7.88;;;2.20;;
23009;SDS011;11671;49.990;8.028;2023-06-26T14:20:09;6.80;;;2.13;;
23009;SDS011;11671;49.990;8.028;2023-06-26T14:22:37;3.30;;;1.63;;
23009;SDS011;11671;49.990;8.028;2023-06-26T14:25:06;4.28;;;1.73;;
23009;SDS011;11671;49.990;8.028;2023-06-26T14:27:33;3.80;;;1.63;;
23009;SDS011;11671;49.990;8.028;2023-06-26T14:29:58;5.15;;;1.40;;
23009;SDS011;11671;49.990;8.028;2023-06-26T14:32:24;4.28;;;1.65;;
23009;SDS011;11671;49.990;8.028;2023-06-26T14:34:50;6.50;;;1.55;;
23009;SDS011;11671;49.990;8.028;2023-06-26T14:37:15;6.38;;;1.90;;
23009;SDS011;11671;49.990;8.028;2023-06-26T14:39:43;8.05;;;1.42;;
23009;SDS011;11671;49.990;8.028;2023-06-26T14:42:09;5.82;;;1.33;;
23009;SDS011;11671;49.990;8.028;2023-06-26T14:44:35;3.25;;;1.45;;
23009;SDS011;11671;49.990;8.028;2023-06-26T14:47:00;9.07;;;1.92;;
23009;SDS011;11671;49.990;8.028;2023-06-26T14:49:26;10.40;;;1.80;;
23009;SDS011;11671;49.990;8.028;2023-06-26T14:51:52;3.30;;;1.60;;
23009;SDS011;11671;49.990;8.028;2023-06-26T14:54:18;5.07;;;1.35;;
23009;SDS011;11671;49.990;8.028;2023-06-26T14:56:43;9.35;;;1.67;;
23009;SDS011;11671;49.990;8.028;2023-06-26T14:59:10;4.63;;;2.33;;
23009;SDS011;11671;49.990;8.028;2023-06-26T15:01:37;4.80;;;1.73;;
23009;SDS011;11671;49.990;8.028;2023-06-26T15:04:03;8.30;;;1.33;;
23009;SDS011;11671;49.990;8.028;2023-06-26T15:06:30;4.13;;;1.70;;
23009;SDS011;11671;49.990;8.028;2023-06-26T15:08:55;6.47;;;1.50;;
23009;SDS011;11671;49.990;8.028;2023-06-26T15:11:21;7.95;;;1.73;;
23009;SDS011;11671;49.990;8.028;2023-06-26T15:13:46;9.25;;;1.90;;
23009;SDS011;11671;49.990;8.028;2023-06-26T15:16:12;5.18;;;1.60;;
23009;SDS011;11671;49.990;8.028;2023-06-26T15:18:38;6.90;;;1.55;;
23009;SDS011;11671;49.990;8.028;2023-06-26T15:21:05;7.60;;;1.35;;
23009;SDS011;11671;49.990;8.028;2023-06-26T15:23:30;5.65;;;1.55;;
23009;SDS011;11671;49.990;8.028;2023-06-26T15:25:56;7.50;;;1.60;;
23009;SDS011;11671;49.990;8.028;2023-06-26T15:28:21;7.80;;;1.45;;
23009;SDS011;11671;49.990;8.028;2023-06-26T15:30:47;3.80;;;1.65;;
23009;SDS011;11671;49.990;8.028;2023-06-26T15:33:13;5.10;;;1.50;;
23009;SDS011;11671;49.990;8.028;2023-06-26T15:35:39;7.75;;;2.10;;
23009;SDS011;11671;49.990;8.028;2023-06-26T15:38:05;4.68;;;1.60;;
23009;SDS011;11671;49.990;8.028;2023-06-26T15:40:30;4.07;;;1.70;;
23009;SDS011;11671;49.990;8.028;2023-06-26T15:42:56;8.30;;;2.05;;
23009;SDS011;11671;49.990;8.028;2023-06-26T15:45:21;4.10;;;1.73;;
23009;SDS011;11671;49.990;8.028;2023-06-26T15:47:49;4.55;;;1.98;;
23009;SDS011;11671;49.990;8.028;2023-06-26T15:50:15;8.30;;;1.92;;
23009;SDS011;11671;49.990;8.028;2023-06-26T15:52:41;7.80;;;2.03;;
23009;SDS011;11671;49.990;8.028;2023-06-26T15:55:07;6.75;;;2.50;;
23009;SDS011;11671;49.990;8.028;2023-06-26T15:57:34;5.53;;;2.05;;
23009;SDS011;11671;49.990;8.028;2023-06-26T16:00:00;5.38;;;2.00;;
23009;SDS011;11671;49.990;8.028;2023-06-26T16:02:28;6.45;;;1.85;;
23009;SDS011;11671;49.990;8.028;2023-06-26T16:04:54;4.68;;;1.73;;
23009;SDS011;11671;49.990;8.028;2023-06-26T16:07:19;5.32;;;1.60;;
23009;SDS011;11671;49.990;8.028;2023-06-26T16:09:45;8.43;;;1.50;;
23009;SDS011;11671;49.990;8.028;2023-06-26T16:12:10;5.28;;;1.50;;
23009;SDS011;11671;49.990;8.028;2023-06-26T16:14:36;10.50;;;5.18;;
23009;SDS011;11671;49.990;8.028;2023-06-26T16:17:02;3.80;;;1.65;;
23009;SDS011;11671;49.990;8.028;2023-06-26T16:19:28;5.03;;;1.55;;
23009;SDS011;11671;49.990;8.028;2023-06-26T16:21:54;9.00;;;2.05;;
23009;SDS011;11671;49.990;8.028;2023-06-26T16:24:19;3.22;;;1.23;;
23009;SDS011;11671;49.990;8.028;2023-06-26T16:26:45;3.83;;;1.30;;
23009;SDS011;11671;49.990;8.028;2023-06-26T16:29:10;4.95;;;1.52;;
23009;SDS011;11671;49.990;8.028;2023-06-26T16:31:36;2.47;;;1.30;;
23009;SDS011;11671;49.990;8.028;2023-06-26T16:34:02;5.50;;;1.80;;
23009;SDS011;11671;49.990;8.028;2023-06-26T16:36:27;7.10;;;1.30;;
23009;SDS011;11671;49.990;8.028;2023-06-26T16:38:53;4.80;;;2.17;;
23009;SDS011;11671;49.990;8.028;2023-06-26T16:41:19;4.97;;;1.70;;
23009;SDS011;11671;49.990;8.028;2023-06-26T16:43:45;10.43;;;2.00;;
23009;SDS011;11671;49.990;8.028;2023-06-26T16:46:11;7.45;;;1.80;;